East White Plains, New York
Current Conditions -  °F | °C
As of 8:06 AM on Wednesday 26 Nov 2014 (Local Time) from KHPN Reporting Station
Moderate Snow Moderate Snow  
Wind Chill: 32°   Ceiling: 2500
Heat Index: 37°   Visibility: 5mi
Dew Point: 34°   Wind: 7mph
Humidity: 87%   Direction: 20°NNE
Pressure: 30.15"   Gusts: NA
Location:  41.0555°N, 73.7433°W
Report Text: KHPN 261306Z 02006KT 5SM RASN OVC025 03/01 A3015 RMK AO2 SNB06 P0001
Loading
Personal Weather Stations






























Interactive Weather Map New forecast layout! Learn more

10-Day Weather Forecast

Advertisements
Track Severe Weather on mobile